DLH947 EGCC-EDDF
Flight info
| Callsign | DLH947 |
|---|---|
| Flight time | 1h 26m |
| Altitude | 37000 |
| Route | SONEX L975 DESIG L603 DOLAS DCT NAVPI DCT NOLRU DCT DIXAT DIXAT1A |
| Aircraft | A320/M-SDE3FGHIRWY/LB1 |
Departure
| Time | 2026-05-04 18:42 |
|---|---|
| Airport | Manchester Airport (EGCC) |
Arrival
| Time | 2026-05-04 20:08 |
|---|---|
| Airport | Frankfurt Main Airport (EDDF) |
| Time | Latitude | Longitude | Altitude | Speed | Heading |
|---|---|---|---|---|---|
| 2026-05-04 18:07 | 53.36763 | -2.28769 | 255 ft | 0 kts | 315° |
| 2026-05-04 18:30 | 53.36761 | -2.28765 | 255 ft | 3 kts | 315° |
| 2026-05-04 18:30 | 53.36743 | -2.28734 | 255 ft | 4 kts | 315° |
| 2026-05-04 18:30 | 53.36726 | -2.28706 | 255 ft | 2 kts | 315° |
| 2026-05-04 18:31 | 53.36712 | -2.28675 | 255 ft | 4 kts | 280° |
| 2026-05-04 18:31 | 53.36717 | -2.28639 | 255 ft | 3 kts | 224° |
| 2026-05-04 18:31 | 53.36708 | -2.28653 | 255 ft | 4 kts | 224° |
| 2026-05-04 18:31 | 53.36689 | -2.28684 | 255 ft | 4 kts | 224° |
| 2026-05-04 18:32 | 53.36676 | -2.28705 | 255 ft | 4 kts | 224° |
| 2026-05-04 18:32 | 53.36657 | -2.28737 | 255 ft | 4 kts | 224° |
| 2026-05-04 18:32 | 53.36645 | -2.28756 | 255 ft | 0 kts | 224° |
| 2026-05-04 18:35 | 53.36637 | -2.28769 | 255 ft | 4 kts | 225° |
| 2026-05-04 18:35 | 53.36607 | -2.28782 | 255 ft | 8 kts | 174° |
| 2026-05-04 18:35 | 53.36558 | -2.28719 | 255 ft | 8 kts | 132° |
| 2026-05-04 18:35 | 53.36517 | -2.28649 | 255 ft | 11 kts | 135° |
| 2026-05-04 18:36 | 53.36460 | -2.28558 | 255 ft | 9 kts | 136° |
| 2026-05-04 18:36 | 53.36417 | -2.28465 | 255 ft | 15 kts | 120° |
| 2026-05-04 18:36 | 53.36359 | -2.28309 | 255 ft | 16 kts | 136° |
| 2026-05-04 18:36 | 53.36276 | -2.28170 | 255 ft | 18 kts | 135° |
| 2026-05-04 18:37 | 53.36186 | -2.28019 | 255 ft | 19 kts | 135° |
| 2026-05-04 18:37 | 53.36090 | -2.27888 | 255 ft | 12 kts | 142° |
| 2026-05-04 18:37 | 53.36020 | -2.27796 | 255 ft | 17 kts | 141° |
| 2026-05-04 18:37 | 53.35898 | -2.27727 | 255 ft | 20 kts | 181° |
| 2026-05-04 18:38 | 53.35821 | -2.27733 | 252 ft | 5 kts | 176° |
| 2026-05-04 18:38 | 53.35789 | -2.27689 | 251 ft | 8 kts | 137° |
| 2026-05-04 18:38 | 53.35700 | -2.27621 | 247 ft | 19 kts | 157° |
| 2026-05-04 18:38 | 53.35617 | -2.27517 | 245 ft | 11 kts | 141° |
| 2026-05-04 18:39 | 53.35556 | -2.27436 | 246 ft | 10 kts | 141° |
| 2026-05-04 18:39 | 53.35518 | -2.27385 | 248 ft | 5 kts | 141° |
| 2026-05-04 18:39 | 53.35497 | -2.27357 | 248 ft | 6 kts | 141° |
| 2026-05-04 18:39 | 53.35410 | -2.27240 | 246 ft | 15 kts | 141° |
| 2026-05-04 18:40 | 53.35305 | -2.27197 | 242 ft | 18 kts | 191° |
| 2026-05-04 18:40 | 53.35170 | -2.27243 | 231 ft | 11 kts | 191° |
| 2026-05-04 18:40 | 53.35076 | -2.27275 | 229 ft | 16 kts | 192° |
| 2026-05-04 18:40 | 53.34998 | -2.27343 | 225 ft | 0 kts | 229° |
| 2026-05-04 18:41 | 53.34997 | -2.27346 | 225 ft | 3 kts | 229° |
| 2026-05-04 18:41 | 53.34882 | -2.27581 | 222 ft | 62 kts | 231° |
| 2026-05-04 18:41 | 53.34468 | -2.28435 | 225 ft | 124 kts | 230° |
| 2026-05-04 18:41 | 53.33826 | -2.29760 | 322 ft | 161 kts | 232° |
| 2026-05-04 18:42 | 53.33158 | -2.31212 | 996 ft | 159 kts | 236° |
| 2026-05-04 18:42 | 53.32490 | -2.32709 | 1660 ft | 163 kts | 238° |
| 2026-05-04 18:42 | 53.31843 | -2.34384 | 2034 ft | 179 kts | 249° |
| 2026-05-04 18:42 | 53.31548 | -2.36468 | 2380 ft | 191 kts | 270° |
| 2026-05-04 18:43 | 53.31693 | -2.38763 | 2667 ft | 210 kts | 287° |
| 2026-05-04 18:43 | 53.32370 | -2.41044 | 3005 ft | 230 kts | 308° |
| 2026-05-04 18:43 | 53.33637 | -2.42831 | 3549 ft | 249 kts | 332° |
| 2026-05-04 18:43 | 53.35337 | -2.43608 | 4302 ft | 258 kts | 355° |
| 2026-05-04 18:44 | 53.37143 | -2.43758 | 5095 ft | 261 kts | 357° |
| 2026-05-04 18:44 | 53.38368 | -2.43828 | 5282 ft | 269 kts | 358° |
| 2026-05-04 18:44 | 53.40839 | -2.43916 | 5140 ft | 264 kts | 351° |
| 2026-05-04 18:44 | 53.42617 | -2.44584 | 5035 ft | 261 kts | 342° |
| 2026-05-04 18:45 | 53.44402 | -2.45164 | 5017 ft | 263 kts | 358° |
| 2026-05-04 18:45 | 53.46190 | -2.44598 | 5013 ft | 265 kts | 22° |
| 2026-05-04 18:45 | 53.47674 | -2.42748 | 5548 ft | 274 kts | 49° |
| 2026-05-04 18:45 | 53.48598 | -2.39957 | 6516 ft | 278 kts | 73° |
| 2026-05-04 18:46 | 53.48930 | -2.36734 | 7354 ft | 282 kts | 81° |
| 2026-05-04 18:46 | 53.49192 | -2.33429 | 8155 ft | 288 kts | 82° |
| 2026-05-04 18:46 | 53.49450 | -2.30049 | 8964 ft | 293 kts | 82° |
| 2026-05-04 18:46 | 53.49706 | -2.26639 | 9786 ft | 297 kts | 82° |
| 2026-05-04 18:47 | 53.49967 | -2.23158 | 10406 ft | 308 kts | 82° |
| 2026-05-04 18:47 | 53.50246 | -2.19452 | 10649 ft | 331 kts | 82° |
| 2026-05-04 18:47 | 53.50547 | -2.15474 | 10846 ft | 355 kts | 82° |
| 2026-05-04 18:47 | 53.50867 | -2.11243 | 11142 ft | 371 kts | 82° |
| 2026-05-04 18:48 | 53.51198 | -2.06898 | 11763 ft | 377 kts | 82° |
| 2026-05-04 18:48 | 53.51533 | -2.02495 | 12497 ft | 380 kts | 83° |
| 2026-05-04 18:48 | 53.51868 | -1.98068 | 13220 ft | 384 kts | 83° |
| 2026-05-04 18:48 | 53.52201 | -1.93588 | 13897 ft | 388 kts | 85° |
| 2026-05-04 18:49 | 53.52256 | -1.89043 | 14487 ft | 391 kts | 94° |
| 2026-05-04 18:49 | 53.51874 | -1.84570 | 15073 ft | 393 kts | 104° |
| 2026-05-04 18:49 | 53.51136 | -1.80120 | 15674 ft | 396 kts | 107° |
| 2026-05-04 18:49 | 53.50363 | -1.75660 | 16267 ft | 399 kts | 107° |
| 2026-05-04 18:50 | 53.49572 | -1.71181 | 16842 ft | 402 kts | 107° |
| 2026-05-04 18:50 | 53.48766 | -1.66671 | 17412 ft | 405 kts | 107° |
| 2026-05-04 18:50 | 53.47952 | -1.62132 | 17966 ft | 408 kts | 108° |
| 2026-05-04 18:50 | 53.47133 | -1.57551 | 18502 ft | 410 kts | 107° |
| 2026-05-04 18:51 | 53.46310 | -1.52952 | 18986 ft | 413 kts | 107° |
| 2026-05-04 18:51 | 53.45480 | -1.48320 | 19443 ft | 416 kts | 107° |
| 2026-05-04 18:51 | 53.44641 | -1.43651 | 19931 ft | 418 kts | 107° |
| 2026-05-04 18:51 | 53.43795 | -1.38968 | 20423 ft | 420 kts | 107° |
| 2026-05-04 18:52 | 53.42942 | -1.34273 | 20916 ft | 422 kts | 107° |
| 2026-05-04 18:52 | 53.42087 | -1.29560 | 21379 ft | 424 kts | 107° |
| 2026-05-04 18:52 | 53.41227 | -1.24812 | 21846 ft | 426 kts | 107° |
| 2026-05-04 18:52 | 53.40366 | -1.20049 | 22310 ft | 428 kts | 107° |
| 2026-05-04 18:53 | 53.39500 | -1.15263 | 22777 ft | 430 kts | 107° |
| 2026-05-04 18:53 | 53.38624 | -1.10466 | 23226 ft | 431 kts | 107° |
| 2026-05-04 18:53 | 53.37743 | -1.05666 | 23669 ft | 433 kts | 107° |
| 2026-05-04 18:53 | 53.36853 | -1.00843 | 24030 ft | 434 kts | 107° |
| 2026-05-04 18:54 | 53.35955 | -0.95991 | 24337 ft | 437 kts | 107° |
| 2026-05-04 18:54 | 53.35053 | -0.91122 | 24691 ft | 439 kts | 107° |
| 2026-05-04 18:54 | 53.34147 | -0.86232 | 25061 ft | 440 kts | 107° |
| 2026-05-04 18:54 | 53.33237 | -0.81329 | 25402 ft | 442 kts | 107° |
| 2026-05-04 18:55 | 53.32321 | -0.76409 | 25741 ft | 443 kts | 107° |
| 2026-05-04 18:55 | 53.30488 | -0.66598 | 26402 ft | 446 kts | 107° |
| 2026-05-04 18:55 | 53.29560 | -0.61643 | 26719 ft | 447 kts | 107° |
| 2026-05-04 18:56 | 53.28627 | -0.56675 | 27046 ft | 449 kts | 107° |
| 2026-05-04 18:56 | 53.27687 | -0.51697 | 27351 ft | 450 kts | 107° |
| 2026-05-04 18:56 | 53.26741 | -0.46698 | 27656 ft | 451 kts | 107° |
| 2026-05-04 18:56 | 53.25793 | -0.41694 | 27965 ft | 452 kts | 107° |
| 2026-05-04 18:57 | 53.24840 | -0.36688 | 28393 ft | 451 kts | 107° |
| 2026-05-04 18:57 | 53.23882 | -0.31677 | 28695 ft | 453 kts | 107° |
| 2026-05-04 18:57 | 53.22925 | -0.26669 | 29069 ft | 452 kts | 107° |
| 2026-05-04 18:57 | 53.21972 | -0.21679 | 29498 ft | 451 kts | 107° |
| 2026-05-04 18:58 | 53.21017 | -0.16692 | 29950 ft | 449 kts | 107° |
| 2026-05-04 18:58 | 53.20066 | -0.11750 | 30357 ft | 447 kts | 107° |
| 2026-05-04 18:58 | 53.19112 | -0.06810 | 30727 ft | 446 kts | 107° |
| 2026-05-04 18:58 | 53.18161 | -0.01893 | 31050 ft | 445 kts | 107° |
| 2026-05-04 18:59 | 53.17208 | 0.03017 | 31291 ft | 447 kts | 108° |
| 2026-05-04 18:59 | 53.16247 | 0.07958 | 31534 ft | 449 kts | 108° |
| 2026-05-04 18:59 | 53.15283 | 0.12898 | 31842 ft | 448 kts | 108° |
| 2026-05-04 18:59 | 53.14317 | 0.17840 | 32204 ft | 447 kts | 108° |
| 2026-05-04 19:00 | 53.13356 | 0.22752 | 32552 ft | 446 kts | 108° |
| 2026-05-04 19:00 | 53.12393 | 0.27663 | 32880 ft | 446 kts | 108° |
| 2026-05-04 19:00 | 53.11428 | 0.32555 | 33224 ft | 445 kts | 108° |
| 2026-05-04 19:00 | 53.10471 | 0.37380 | 33565 ft | 444 kts | 108° |
| 2026-05-04 19:01 | 53.09505 | 0.42245 | 33882 ft | 443 kts | 108° |
| 2026-05-04 19:01 | 53.08536 | 0.47127 | 34188 ft | 443 kts | 108° |
| 2026-05-04 19:01 | 53.07572 | 0.51983 | 34465 ft | 442 kts | 108° |
| 2026-05-04 19:01 | 53.06600 | 0.56849 | 34600 ft | 445 kts | 109° |
| 2026-05-04 19:02 | 53.05619 | 0.61744 | 34793 ft | 447 kts | 109° |
| 2026-05-04 19:02 | 53.04634 | 0.66656 | 34997 ft | 448 kts | 109° |
| 2026-05-04 19:02 | 53.03645 | 0.71579 | 35210 ft | 449 kts | 109° |
| 2026-05-04 19:02 | 53.02653 | 0.76495 | 35435 ft | 449 kts | 109° |
| 2026-05-04 19:03 | 53.01658 | 0.81415 | 35648 ft | 449 kts | 109° |
| 2026-05-04 19:03 | 53.00657 | 0.86349 | 35860 ft | 450 kts | 109° |
| 2026-05-04 19:03 | 52.99656 | 0.91278 | 36049 ft | 451 kts | 109° |
| 2026-05-04 19:03 | 52.98667 | 0.96134 | 36233 ft | 451 kts | 110° |
| 2026-05-04 19:04 | 52.97656 | 1.01067 | 36431 ft | 452 kts | 110° |
| 2026-05-04 19:04 | 52.96605 | 1.05981 | 36586 ft | 453 kts | 111° |
| 2026-05-04 19:04 | 52.95495 | 1.10944 | 36763 ft | 453 kts | 112° |
| 2026-05-04 19:04 | 52.94388 | 1.15764 | 36944 ft | 453 kts | 112° |
| 2026-05-04 19:05 | 52.93252 | 1.20650 | 37048 ft | 456 kts | 112° |
| 2026-05-04 19:05 | 52.92111 | 1.25570 | 37057 ft | 458 kts | 112° |
| 2026-05-04 19:05 | 52.89845 | 1.35442 | 37057 ft | 458 kts | 112° |
| 2026-05-04 19:06 | 52.87593 | 1.45319 | 37057 ft | 458 kts | 112° |
| 2026-05-04 19:06 | 52.85332 | 1.55188 | 37056 ft | 459 kts | 112° |
| 2026-05-04 19:07 | 52.83047 | 1.65065 | 37053 ft | 460 kts | 112° |
| 2026-05-04 19:07 | 52.80756 | 1.74934 | 37053 ft | 460 kts | 112° |
| 2026-05-04 19:08 | 52.78457 | 1.84809 | 37054 ft | 460 kts | 112° |
| 2026-05-04 19:08 | 52.76142 | 1.94666 | 37054 ft | 460 kts | 113° |
| 2026-05-04 19:09 | 52.73821 | 2.04516 | 37048 ft | 460 kts | 113° |
| 2026-05-04 19:09 | 52.71514 | 2.14295 | 37052 ft | 460 kts | 113° |
| 2026-05-04 19:10 | 52.69176 | 2.24130 | 37055 ft | 460 kts | 113° |
| 2026-05-04 19:10 | 52.66834 | 2.33943 | 37054 ft | 460 kts | 113° |
| 2026-05-04 19:11 | 52.64489 | 2.43748 | 37055 ft | 460 kts | 114° |
| 2026-05-04 19:11 | 52.62133 | 2.53536 | 37041 ft | 460 kts | 114° |
| 2026-05-04 19:12 | 52.58571 | 2.68225 | 37046 ft | 461 kts | 114° |
| 2026-05-04 19:13 | 52.56177 | 2.78005 | 37050 ft | 461 kts | 114° |
| 2026-05-04 19:13 | 52.53727 | 2.87740 | 37045 ft | 460 kts | 116° |
| 2026-05-04 19:14 | 52.51014 | 2.97244 | 37047 ft | 460 kts | 118° |
| 2026-05-04 19:14 | 52.48194 | 3.06608 | 37026 ft | 460 kts | 119° |
| 2026-05-04 19:15 | 52.45383 | 3.16042 | 37036 ft | 461 kts | 118° |
| 2026-05-04 19:15 | 52.42613 | 3.25507 | 37034 ft | 460 kts | 118° |
| 2026-05-04 19:16 | 52.39839 | 3.34967 | 37038 ft | 460 kts | 118° |
| 2026-05-04 19:16 | 52.37052 | 3.44414 | 37032 ft | 460 kts | 118° |
| 2026-05-04 19:17 | 52.34259 | 3.53818 | 37024 ft | 460 kts | 119° |
| 2026-05-04 19:17 | 52.31456 | 3.63210 | 37020 ft | 460 kts | 119° |
| 2026-05-04 19:18 | 52.28646 | 3.72600 | 37021 ft | 460 kts | 119° |
| 2026-05-04 19:18 | 52.25847 | 3.81927 | 37025 ft | 460 kts | 119° |
| 2026-05-04 19:19 | 52.23025 | 3.91303 | 37028 ft | 460 kts | 119° |
| 2026-05-04 19:19 | 52.20194 | 4.00636 | 37011 ft | 459 kts | 120° |
| 2026-05-04 19:20 | 52.17820 | 4.08442 | 37020 ft | 458 kts | 120° |
| 2026-05-04 19:20 | 52.14986 | 4.17739 | 37016 ft | 458 kts | 120° |
| 2026-05-04 19:21 | 52.12153 | 4.27019 | 37018 ft | 458 kts | 120° |
| 2026-05-04 19:21 | 52.09308 | 4.36281 | 36996 ft | 458 kts | 120° |
| 2026-05-04 19:22 | 52.06453 | 4.45529 | 36994 ft | 458 kts | 120° |
| 2026-05-04 19:22 | 52.03605 | 4.54732 | 36996 ft | 458 kts | 120° |
| 2026-05-04 19:23 | 52.00739 | 4.63955 | 36986 ft | 457 kts | 120° |
| 2026-05-04 19:23 | 51.97863 | 4.73157 | 36988 ft | 457 kts | 120° |
| 2026-05-04 19:24 | 51.94986 | 4.82360 | 36987 ft | 457 kts | 120° |
| 2026-05-04 19:24 | 51.92190 | 4.91271 | 36975 ft | 456 kts | 120° |
| 2026-05-04 19:25 | 51.89319 | 5.00368 | 36984 ft | 457 kts | 121° |
| 2026-05-04 19:25 | 51.86420 | 5.09516 | 36983 ft | 456 kts | 121° |
| 2026-05-04 19:26 | 51.83513 | 5.18648 | 36986 ft | 456 kts | 121° |
| 2026-05-04 19:26 | 51.80603 | 5.27766 | 36984 ft | 456 kts | 121° |
| 2026-05-04 19:27 | 51.77704 | 5.36823 | 36972 ft | 456 kts | 121° |
| 2026-05-04 19:27 | 51.74785 | 5.45914 | 36978 ft | 456 kts | 121° |
| 2026-05-04 19:28 | 51.71856 | 5.55014 | 36990 ft | 457 kts | 121° |
| 2026-05-04 19:28 | 51.68914 | 5.64093 | 36984 ft | 457 kts | 121° |
| 2026-05-04 19:29 | 51.65962 | 5.73168 | 36967 ft | 457 kts | 121° |
| 2026-05-04 19:29 | 51.63006 | 5.82227 | 36969 ft | 456 kts | 122° |
| 2026-05-04 19:30 | 51.60046 | 5.91258 | 36978 ft | 456 kts | 122° |
| 2026-05-04 19:30 | 51.57100 | 6.00226 | 36973 ft | 456 kts | 122° |
| 2026-05-04 19:31 | 51.54129 | 6.09240 | 36985 ft | 456 kts | 122° |
| 2026-05-04 19:31 | 51.51155 | 6.18239 | 36979 ft | 454 kts | 122° |
| 2026-05-04 19:31 | 51.49769 | 6.22786 | 36640 ft | 452 kts | 116° |
| 2026-05-04 19:32 | 51.48624 | 6.27463 | 36200 ft | 449 kts | 116° |
| 2026-05-04 19:32 | 51.47501 | 6.32067 | 35797 ft | 448 kts | 116° |
| 2026-05-04 19:32 | 51.46362 | 6.36726 | 35387 ft | 448 kts | 116° |
| 2026-05-04 19:32 | 51.45221 | 6.41373 | 34995 ft | 448 kts | 117° |
| 2026-05-04 19:33 | 51.44076 | 6.46023 | 34586 ft | 448 kts | 117° |
| 2026-05-04 19:33 | 51.42928 | 6.50666 | 34159 ft | 448 kts | 117° |
| 2026-05-04 19:33 | 51.41776 | 6.55313 | 33685 ft | 448 kts | 118° |
| 2026-05-04 19:33 | 51.40620 | 6.59971 | 33190 ft | 449 kts | 118° |
| 2026-05-04 19:34 | 51.39465 | 6.64606 | 32697 ft | 450 kts | 118° |
| 2026-05-04 19:34 | 51.38303 | 6.69262 | 32222 ft | 451 kts | 118° |
| 2026-05-04 19:34 | 51.37143 | 6.73914 | 31722 ft | 451 kts | 118° |
| 2026-05-04 19:34 | 51.35979 | 6.78583 | 30995 ft | 451 kts | 118° |
| 2026-05-04 19:35 | 51.34808 | 6.83259 | 30276 ft | 452 kts | 118° |
| 2026-05-04 19:35 | 51.33632 | 6.87935 | 29486 ft | 453 kts | 118° |
| 2026-05-04 19:35 | 51.32451 | 6.92610 | 28678 ft | 454 kts | 117° |
| 2026-05-04 19:35 | 51.31262 | 6.97312 | 27889 ft | 456 kts | 117° |
| 2026-05-04 19:36 | 51.30072 | 7.02022 | 27116 ft | 458 kts | 117° |
| 2026-05-04 19:36 | 51.28810 | 7.06688 | 26388 ft | 456 kts | 122° |
| 2026-05-04 19:36 | 51.27136 | 7.10955 | 26068 ft | 452 kts | 131° |
| 2026-05-04 19:36 | 51.25076 | 7.14711 | 25943 ft | 448 kts | 140° |
| 2026-05-04 19:37 | 51.22687 | 7.17883 | 25990 ft | 446 kts | 149° |
| 2026-05-04 19:37 | 51.20072 | 7.20384 | 25990 ft | 442 kts | 157° |
| 2026-05-04 19:37 | 51.17322 | 7.22574 | 26000 ft | 443 kts | 157° |
| 2026-05-04 19:37 | 51.14559 | 7.24753 | 26001 ft | 443 kts | 157° |
| 2026-05-04 19:38 | 51.11793 | 7.26928 | 25999 ft | 443 kts | 157° |
| 2026-05-04 19:38 | 51.09037 | 7.29125 | 25989 ft | 443 kts | 156° |
| 2026-05-04 19:38 | 51.06296 | 7.31365 | 25731 ft | 444 kts | 156° |
| 2026-05-04 19:38 | 51.03553 | 7.33641 | 25480 ft | 445 kts | 155° |
| 2026-05-04 19:39 | 51.00816 | 7.35933 | 25240 ft | 442 kts | 155° |
| 2026-05-04 19:39 | 50.98143 | 7.38172 | 24992 ft | 427 kts | 155° |
| 2026-05-04 19:39 | 50.95555 | 7.40326 | 24749 ft | 413 kts | 156° |
| 2026-05-04 19:39 | 50.93049 | 7.42396 | 24505 ft | 400 kts | 156° |
| 2026-05-04 19:40 | 50.90616 | 7.44391 | 24311 ft | 387 kts | 156° |
| 2026-05-04 19:40 | 50.88268 | 7.46308 | 24180 ft | 372 kts | 156° |
| 2026-05-04 19:40 | 50.86007 | 7.48152 | 24043 ft | 360 kts | 156° |
| 2026-05-04 19:40 | 50.83798 | 7.49955 | 23672 ft | 353 kts | 156° |
| 2026-05-04 19:41 | 50.81619 | 7.51725 | 23079 ft | 352 kts | 156° |
| 2026-05-04 19:41 | 50.79447 | 7.53486 | 22602 ft | 349 kts | 156° |
| 2026-05-04 19:41 | 50.77293 | 7.55236 | 22162 ft | 347 kts | 156° |
| 2026-05-04 19:41 | 50.75182 | 7.56955 | 21733 ft | 344 kts | 156° |
| 2026-05-04 19:42 | 50.73059 | 7.58681 | 21296 ft | 342 kts | 156° |
| 2026-05-04 19:42 | 50.70947 | 7.60395 | 20901 ft | 340 kts | 156° |
| 2026-05-04 19:42 | 50.68850 | 7.62094 | 20487 ft | 337 kts | 156° |
| 2026-05-04 19:42 | 50.66770 | 7.63783 | 20087 ft | 335 kts | 156° |
| 2026-05-04 19:43 | 50.64713 | 7.65446 | 19691 ft | 333 kts | 156° |
| 2026-05-04 19:43 | 50.62647 | 7.67118 | 19305 ft | 331 kts | 156° |
| 2026-05-04 19:43 | 50.60599 | 7.68779 | 18922 ft | 329 kts | 156° |
| 2026-05-04 19:43 | 50.58576 | 7.70417 | 18466 ft | 325 kts | 156° |
| 2026-05-04 19:44 | 50.56572 | 7.72035 | 17754 ft | 322 kts | 156° |
| 2026-05-04 19:44 | 50.54608 | 7.73613 | 17061 ft | 319 kts | 156° |
| 2026-05-04 19:44 | 50.52645 | 7.75194 | 16400 ft | 315 kts | 156° |
| 2026-05-04 19:44 | 50.50700 | 7.76756 | 15762 ft | 312 kts | 156° |
| 2026-05-04 19:45 | 50.48780 | 7.78295 | 15141 ft | 309 kts | 156° |
| 2026-05-04 19:45 | 50.46873 | 7.79824 | 14542 ft | 305 kts | 156° |
| 2026-05-04 19:45 | 50.44993 | 7.81329 | 13952 ft | 302 kts | 156° |
| 2026-05-04 19:45 | 50.43175 | 7.82970 | 13313 ft | 301 kts | 149° |
| 2026-05-04 19:46 | 50.41517 | 7.84973 | 12672 ft | 299 kts | 145° |
| 2026-05-04 19:46 | 50.39908 | 7.86978 | 12315 ft | 292 kts | 145° |
| 2026-05-04 19:46 | 50.38305 | 7.88970 | 12069 ft | 294 kts | 145° |
| 2026-05-04 19:46 | 50.36710 | 7.90951 | 11796 ft | 292 kts | 145° |
| 2026-05-04 19:47 | 50.35120 | 7.92926 | 11526 ft | 291 kts | 145° |
| 2026-05-04 19:47 | 50.33536 | 7.94889 | 11252 ft | 289 kts | 146° |
| 2026-05-04 19:47 | 50.31960 | 7.96836 | 10974 ft | 289 kts | 146° |
| 2026-05-04 19:47 | 50.30406 | 7.98751 | 10698 ft | 286 kts | 146° |
| 2026-05-04 19:48 | 50.28847 | 8.00670 | 10428 ft | 284 kts | 146° |
| 2026-05-04 19:48 | 50.27302 | 8.02576 | 10169 ft | 283 kts | 146° |
| 2026-05-04 19:48 | 50.25887 | 8.04719 | 9987 ft | 286 kts | 133° |
| 2026-05-04 19:48 | 50.24679 | 8.07196 | 9986 ft | 287 kts | 131° |
| 2026-05-04 19:49 | 50.23464 | 8.09677 | 9979 ft | 287 kts | 132° |
| 2026-05-04 19:49 | 50.22245 | 8.12151 | 9984 ft | 287 kts | 132° |
| 2026-05-04 19:49 | 50.21022 | 8.14614 | 9981 ft | 285 kts | 132° |
| 2026-05-04 19:49 | 50.19852 | 8.16973 | 9972 ft | 263 kts | 133° |
| 2026-05-04 19:50 | 50.18755 | 8.19202 | 9971 ft | 256 kts | 133° |
| 2026-05-04 19:50 | 50.17676 | 8.21388 | 9969 ft | 254 kts | 133° |
| 2026-05-04 19:50 | 50.16599 | 8.23567 | 9986 ft | 253 kts | 133° |
| 2026-05-04 19:50 | 50.15535 | 8.25708 | 9969 ft | 253 kts | 133° |
| 2026-05-04 19:51 | 50.14456 | 8.27874 | 9971 ft | 253 kts | 132° |
| 2026-05-04 19:51 | 50.13378 | 8.30042 | 9973 ft | 253 kts | 132° |
| 2026-05-04 19:51 | 50.12299 | 8.32212 | 9971 ft | 253 kts | 132° |
| 2026-05-04 19:51 | 50.11286 | 8.34459 | 9970 ft | 256 kts | 122° |
| 2026-05-04 19:52 | 50.10661 | 8.37083 | 9972 ft | 261 kts | 105° |
| 2026-05-04 19:52 | 50.10537 | 8.39923 | 9973 ft | 266 kts | 88° |
| 2026-05-04 19:52 | 50.10937 | 8.42763 | 9971 ft | 270 kts | 72° |
| 2026-05-04 19:52 | 50.11598 | 8.45505 | 9975 ft | 271 kts | 72° |
| 2026-05-04 19:53 | 50.12256 | 8.48255 | 9975 ft | 271 kts | 72° |
| 2026-05-04 19:53 | 50.12913 | 8.51004 | 9975 ft | 271 kts | 72° |
| 2026-05-04 19:53 | 50.13574 | 8.53763 | 9976 ft | 271 kts | 72° |
| 2026-05-04 19:53 | 50.14233 | 8.56509 | 9976 ft | 271 kts | 72° |
| 2026-05-04 19:54 | 50.14887 | 8.59260 | 9977 ft | 271 kts | 72° |
| 2026-05-04 19:54 | 50.15530 | 8.61974 | 9977 ft | 271 kts | 72° |
| 2026-05-04 19:54 | 50.16184 | 8.64730 | 9905 ft | 272 kts | 72° |
| 2026-05-04 19:54 | 50.16849 | 8.67538 | 9349 ft | 280 kts | 72° |
| 2026-05-04 19:55 | 50.17518 | 8.70357 | 9171 ft | 272 kts | 72° |
| 2026-05-04 19:55 | 50.18165 | 8.73078 | 8879 ft | 264 kts | 72° |
| 2026-05-04 19:55 | 50.18800 | 8.75753 | 8438 ft | 262 kts | 72° |
| 2026-05-04 19:55 | 50.19428 | 8.78403 | 8034 ft | 259 kts | 72° |
| 2026-05-04 19:56 | 50.20047 | 8.81033 | 7928 ft | 259 kts | 72° |
| 2026-05-04 19:56 | 50.20666 | 8.83670 | 7856 ft | 259 kts | 72° |
| 2026-05-04 19:56 | 50.21288 | 8.86308 | 7805 ft | 259 kts | 72° |
| 2026-05-04 19:56 | 50.21908 | 8.88938 | 7751 ft | 258 kts | 72° |
| 2026-05-04 19:57 | 50.22527 | 8.91571 | 7681 ft | 258 kts | 72° |
| 2026-05-04 19:57 | 50.23146 | 8.94202 | 7614 ft | 257 kts | 72° |
| 2026-05-04 19:57 | 50.23753 | 8.96791 | 7538 ft | 257 kts | 72° |
| 2026-05-04 19:57 | 50.24365 | 8.99414 | 7493 ft | 257 kts | 72° |
| 2026-05-04 19:58 | 50.24976 | 9.02038 | 7337 ft | 257 kts | 72° |
| 2026-05-04 19:58 | 50.25584 | 9.04650 | 7119 ft | 255 kts | 72° |
| 2026-05-04 19:58 | 50.26078 | 9.07289 | 6989 ft | 251 kts | 89° |
| 2026-05-04 19:58 | 50.25789 | 9.09887 | 6991 ft | 242 kts | 120° |
| 2026-05-04 19:59 | 50.24708 | 9.11813 | 6994 ft | 235 kts | 151° |
| 2026-05-04 19:59 | 50.23178 | 9.12523 | 6996 ft | 230 kts | 182° |
| 2026-05-04 19:59 | 50.21667 | 9.11830 | 6994 ft | 230 kts | 214° |
| 2026-05-04 19:59 | 50.20504 | 9.10112 | 6999 ft | 232 kts | 227° |
| 2026-05-04 20:00 | 50.19462 | 9.08189 | 6997 ft | 232 kts | 229° |
| 2026-05-04 20:00 | 50.18536 | 9.06111 | 6865 ft | 235 kts | 236° |
| 2026-05-04 20:00 | 50.17668 | 9.03916 | 6387 ft | 238 kts | 237° |
| 2026-05-04 20:00 | 50.16829 | 9.01736 | 6216 ft | 232 kts | 237° |
| 2026-05-04 20:01 | 50.16002 | 8.99575 | 6159 ft | 233 kts | 237° |
| 2026-05-04 20:01 | 50.15149 | 8.97433 | 6031 ft | 233 kts | 239° |
| 2026-05-04 20:01 | 50.14475 | 8.95177 | 5709 ft | 226 kts | 247° |
| 2026-05-04 20:01 | 50.13945 | 8.92963 | 5587 ft | 212 kts | 248° |
| 2026-05-04 20:02 | 50.13452 | 8.90848 | 5347 ft | 202 kts | 248° |
| 2026-05-04 20:02 | 50.12983 | 8.88844 | 5095 ft | 193 kts | 248° |
| 2026-05-04 20:02 | 50.12525 | 8.86895 | 4842 ft | 191 kts | 248° |
| 2026-05-04 20:02 | 50.12068 | 8.84954 | 4578 ft | 190 kts | 249° |
| 2026-05-04 20:03 | 50.11611 | 8.83015 | 4328 ft | 190 kts | 249° |
| 2026-05-04 20:03 | 50.11157 | 8.81087 | 4070 ft | 190 kts | 249° |
| 2026-05-04 20:03 | 50.10710 | 8.79192 | 3821 ft | 189 kts | 249° |
| 2026-05-04 20:03 | 50.10257 | 8.77273 | 3576 ft | 188 kts | 249° |
| 2026-05-04 20:04 | 50.09807 | 8.75368 | 3323 ft | 187 kts | 250° |
| 2026-05-04 20:04 | 50.09355 | 8.73458 | 3073 ft | 187 kts | 250° |
| 2026-05-04 20:04 | 50.08904 | 8.71554 | 2818 ft | 187 kts | 250° |
| 2026-05-04 20:04 | 50.08456 | 8.69660 | 2568 ft | 184 kts | 250° |
| 2026-05-04 20:05 | 50.08028 | 8.67856 | 2341 ft | 171 kts | 251° |
| 2026-05-04 20:05 | 50.07631 | 8.66187 | 2152 ft | 160 kts | 251° |
| 2026-05-04 20:05 | 50.07264 | 8.64613 | 1929 ft | 149 kts | 252° |
| 2026-05-04 20:05 | 50.06911 | 8.63119 | 1704 ft | 145 kts | 251° |
| 2026-05-04 20:06 | 50.06557 | 8.61663 | 1476 ft | 143 kts | 252° |
| 2026-05-04 20:06 | 50.06223 | 8.60229 | 1311 ft | 142 kts | 252° |
| 2026-05-04 20:06 | 50.05873 | 8.58791 | 1090 ft | 141 kts | 250° |
| 2026-05-04 20:06 | 50.05539 | 8.57367 | 907 ft | 139 kts | 251° |
| 2026-05-04 20:07 | 50.05227 | 8.55944 | 761 ft | 139 kts | 250° |
| 2026-05-04 20:07 | 50.04875 | 8.54547 | 586 ft | 138 kts | 249° |
| 2026-05-04 20:07 | 50.04534 | 8.53160 | 404 ft | 135 kts | 251° |
| 2026-05-04 20:07 | 50.04214 | 8.51807 | 354 ft | 124 kts | 251° |
| 2026-05-04 20:08 | 50.03962 | 8.50769 | 354 ft | 78 kts | 249° |
| 2026-05-04 20:08 | 50.03827 | 8.50212 | 352 ft | 41 kts | 249° |
| 2026-05-04 20:08 | 50.03730 | 8.49828 | 355 ft | 31 kts | 234° |
| 2026-05-04 20:08 | 50.03603 | 8.49787 | 347 ft | 15 kts | 151° |
| 2026-05-04 20:09 | 50.03552 | 8.49886 | 347 ft | 9 kts | 107° |
| 2026-05-04 20:09 | 50.03551 | 8.49971 | 349 ft | 7 kts | 72° |
| 2026-05-04 20:09 | 50.03583 | 8.50099 | 353 ft | 21 kts | 70° |
| 2026-05-04 20:09 | 50.03652 | 8.50383 | 350 ft | 32 kts | 69° |
| 2026-05-04 20:10 | 50.03732 | 8.50708 | 351 ft | 33 kts | 69° |
| 2026-05-04 20:10 | 50.03812 | 8.51042 | 352 ft | 33 kts | 69° |
| 2026-05-04 20:10 | 50.03865 | 8.51269 | 346 ft | 34 kts | 70° |
| 2026-05-04 20:10 | 50.03946 | 8.51615 | 349 ft | 34 kts | 70° |
| 2026-05-04 20:11 | 50.04031 | 8.51956 | 354 ft | 32 kts | 69° |
| 2026-05-04 20:11 | 50.04127 | 8.52360 | 353 ft | 27 kts | 70° |
| 2026-05-04 20:11 | 50.04173 | 8.52550 | 349 ft | 28 kts | 70° |
| 2026-05-04 20:11 | 50.04243 | 8.52839 | 352 ft | 29 kts | 69° |
| 2026-05-04 20:12 | 50.04316 | 8.53143 | 352 ft | 31 kts | 69° |
| 2026-05-04 20:12 | 50.04377 | 8.53405 | 357 ft | 23 kts | 68° |
| 2026-05-04 20:12 | 50.04412 | 8.53714 | 364 ft | 21 kts | 83° |
| 2026-05-04 20:12 | 50.04423 | 8.53871 | 360 ft | 23 kts | 84° |
| 2026-05-04 20:13 | 50.04440 | 8.54147 | 360 ft | 30 kts | 85° |
| 2026-05-04 20:13 | 50.04456 | 8.54478 | 361 ft | 28 kts | 93° |
| 2026-05-04 20:13 | 50.04363 | 8.54728 | 359 ft | 24 kts | 136° |
| 2026-05-04 20:13 | 50.04228 | 8.54823 | 353 ft | 21 kts | 162° |
| 2026-05-04 20:14 | 50.04118 | 8.54886 | 351 ft | 11 kts | 159° |
| 2026-05-04 20:14 | 50.04070 | 8.54914 | 347 ft | 2 kts | 159° |
| 2026-05-04 20:14 | 50.04068 | 8.54916 | 347 ft | 0 kts | 159° |
| 2026-05-04 20:15 | 50.04061 | 8.54920 | 351 ft | 2 kts | 159° |
| 2026-05-04 20:15 | 50.04008 | 8.54949 | 353 ft | 17 kts | 159° |
| 2026-05-04 20:15 | 50.03914 | 8.55007 | 350 ft | 5 kts | 159° |
| 2026-05-04 20:15 | 50.03886 | 8.55023 | 350 ft | 3 kts | 159° |
| 2026-05-04 20:16 | 50.03880 | 8.55026 | 348 ft | 0 kts | 159° |
| 2026-05-04 20:21 | 50.03863 | 8.55047 | 356 ft | 11 kts | 134° |
| 2026-05-04 20:21 | 50.03863 | 8.55164 | 348 ft | 11 kts | 69° |
| 2026-05-04 20:21 | 50.03877 | 8.55221 | 347 ft | 0 kts | 70° |
| 2026-05-04 20:23 | 50.03884 | 8.55255 | 353 ft | 9 kts | 70° |
| 2026-05-04 20:23 | 50.03896 | 8.55304 | 353 ft | 4 kts | 70° |
| 2026-05-04 20:23 | 50.03904 | 8.55339 | 350 ft | 3 kts | 70° |
| 2026-05-04 20:23 | 50.03911 | 8.55368 | 354 ft | 4 kts | 69° |
| 2026-05-04 20:24 | 50.03944 | 8.55507 | 351 ft | 21 kts | 70° |
| 2026-05-04 20:24 | 50.03983 | 8.55668 | 348 ft | 13 kts | 69° |
| 2026-05-04 20:24 | 50.04012 | 8.55788 | 354 ft | 11 kts | 69° |
| 2026-05-04 20:24 | 50.04037 | 8.55891 | 347 ft | 10 kts | 69° |
| 2026-05-04 20:25 | 50.04059 | 8.55986 | 351 ft | 9 kts | 70° |
| 2026-05-04 20:25 | 50.04095 | 8.56137 | 346 ft | 18 kts | 69° |
| 2026-05-04 20:25 | 50.04145 | 8.56348 | 353 ft | 25 kts | 69° |
| 2026-05-04 20:25 | 50.04198 | 8.56565 | 353 ft | 19 kts | 70° |
| 2026-05-04 20:26 | 50.04230 | 8.56703 | 354 ft | 8 kts | 69° |
| 2026-05-04 20:26 | 50.04260 | 8.56824 | 353 ft | 23 kts | 70° |
| 2026-05-04 20:26 | 50.04324 | 8.57088 | 351 ft | 29 kts | 70° |
| 2026-05-04 20:26 | 50.04401 | 8.57423 | 349 ft | 37 kts | 69° |
| 2026-05-04 20:27 | 50.04498 | 8.57821 | 347 ft | 38 kts | 69° |
| 2026-05-04 20:27 | 50.04577 | 8.58149 | 353 ft | 33 kts | 69° |
| 2026-05-04 20:27 | 50.04656 | 8.58485 | 350 ft | 33 kts | 70° |
| 2026-05-04 20:27 | 50.04724 | 8.58754 | 350 ft | 20 kts | 68° |
| 2026-05-04 20:28 | 50.04775 | 8.58956 | 351 ft | 20 kts | 69° |
| 2026-05-04 20:28 | 50.04822 | 8.59149 | 350 ft | 12 kts | 67° |
| 2026-05-04 20:28 | 50.04850 | 8.59264 | 351 ft | 11 kts | 70° |
| 2026-05-04 20:28 | 50.04887 | 8.59286 | 345 ft | 5 kts | 349° |
| 2026-05-04 20:29 | 50.04915 | 8.59273 | 349 ft | 4 kts | 339° |
| 2026-05-04 20:29 | 50.04935 | 8.59262 | 352 ft | 1 kts | 340° |
| 2026-05-04 20:29 | 50.04938 | 8.59260 | 351 ft | 0 kts | 339° |